Terminal Aerodrome Forecast
Issued by NWS Louisville, KY

Home | Current Version | Previous Version | Text Only | Print | Product List | Glossary On
Versions: 1 2 3 4 5 6 7 8 9 10 11 12 13 14 15 16 17 18
000
FTUS43 KLMK 012300
TAFSDF
TAF
KSDF 012323Z 0200/0306 19010KT 4SM -RA BR OVC010
     FM020100 25012G19KT P6SM VCSH OVC015
     FM020700 30016G25KT P6SM VCSH OVC019
     FM021500 31010KT P6SM BKN027
     FM030000 VRB03KT P6SM SCT150=

USA.gov is the U.S. government's official web portal to all federal, state and local government web resources and services.